createdAt,value
2017-06-17T00:00:42.746Z,59.50
2017-06-17T00:03:10.987Z,59.40
2017-06-17T00:05:38.447Z,59.30
2017-06-17T00:08:05.914Z,59.20
2017-06-17T00:10:33.388Z,59.20
2017-06-17T00:13:01.618Z,59.50
2017-06-17T00:15:29.106Z,59.50
2017-06-17T00:17:56.564Z,59.40
2017-06-17T00:20:24.072Z,59.10
2017-06-17T00:22:51.551Z,59.10
2017-06-17T00:25:19.032Z,59.00
2017-06-17T00:27:46.504Z,59.00
2017-06-17T00:30:13.972Z,58.80
2017-06-17T00:32:42.207Z,58.90
2017-06-17T00:35:09.731Z,58.90
2017-06-17T00:37:37.195Z,58.50
2017-06-17T00:40:04.659Z,58.70
2017-06-17T00:42:32.138Z,58.80
2017-06-17T00:44:59.600Z,59.00
2017-06-17T00:47:27.093Z,59.40
2017-06-17T00:49:55.328Z,59.10
2017-06-17T00:52:22.815Z,59.10
2017-06-17T00:54:50.288Z,58.80
2017-06-17T00:57:18.541Z,58.20
2017-06-17T00:59:46.030Z,58.10
2017-06-17T01:02:14.288Z,58.40
2017-06-17T01:04:42.539Z,58.50
2017-06-17T01:07:10.970Z,58.40
2017-06-17T01:09:38.440Z,58.60
2017-06-17T01:12:05.939Z,58.80
2017-06-17T01:14:33.408Z,59.00
2017-06-17T01:17:00.892Z,59.10
2017-06-17T01:19:28.373Z,58.80
2017-06-17T01:21:55.840Z,58.50
2017-06-17T01:24:23.308Z,58.40
2017-06-17T01:26:50.783Z,58.30
2017-06-17T01:29:18.261Z,58.70
2017-06-17T01:31:46.511Z,59.10
2017-06-17T01:34:14.007Z,59.00
2017-06-17T01:36:42.244Z,59.20
2017-06-17T01:39:09.723Z,59.20
2017-06-17T01:41:37.192Z,59.60
2017-06-17T01:44:04.672Z,59.50
2017-06-17T01:46:32.151Z,59.30
2017-06-17T01:48:59.620Z,59.40
2017-06-17T01:51:27.100Z,59.50
2017-06-17T01:53:54.578Z,59.50
2017-06-17T01:56:22.825Z,59.20
2017-06-17T01:58:50.295Z,59.20
2017-06-17T02:01:17.766Z,60.30
2017-06-17T02:03:45.251Z,59.00
2017-06-17T02:06:12.739Z,59.10
2017-06-17T02:08:40.200Z,59.20
2017-06-17T02:11:07.688Z,59.10
2017-06-17T02:13:35.257Z,59.10
2017-06-17T02:16:03.513Z,59.30
2017-06-17T02:18:30.988Z,59.20
2017-06-17T02:21:04.971Z,60.40
2017-06-17T02:23:45.725Z,59.60
2017-06-17T02:26:13.216Z,59.60
2017-06-17T02:28:40.709Z,59.30
2017-06-17T02:31:08.173Z,59.40
2017-06-17T02:33:35.652Z,59.30
2017-06-17T02:36:03.138Z,59.00
2017-06-17T02:38:30.627Z,59.10
2017-06-17T02:40:58.858Z,58.80
2017-06-17T02:43:26.352Z,58.60
2017-06-17T02:45:54.601Z,58.60
2017-06-17T02:48:22.101Z,58.50
2017-06-17T02:50:50.327Z,58.20
2017-06-17T02:53:17.804Z,58.20
2017-06-17T02:55:45.280Z,57.90
2017-06-17T02:58:13.528Z,58.50
2017-06-17T03:00:40.994Z,58.50
2017-06-17T03:03:08.503Z,58.30
2017-06-17T03:05:35.974Z,58.40
2017-06-17T03:08:03.462Z,58.50
2017-06-17T03:10:30.947Z,58.60
2017-06-17T03:12:59.191Z,59.10
2017-06-17T03:15:26.685Z,59.10
2017-06-17T03:17:54.940Z,59.20
2017-06-17T03:20:22.424Z,59.10
2017-06-17T03:22:49.890Z,59.00
2017-06-17T03:25:17.368Z,59.70
2017-06-17T03:27:44.845Z,59.90
2017-06-17T03:30:12.336Z,60.10
2017-06-17T03:32:40.584Z,60.00
2017-06-17T03:35:08.211Z,60.00
2017-06-17T03:37:35.739Z,59.70
2017-06-17T03:40:03.991Z,60.00
2017-06-17T03:42:31.472Z,60.00
2017-06-17T03:44:59.713Z,59.60
2017-06-17T03:47:27.195Z,59.90
2017-06-17T03:49:55.421Z,61.00
2017-06-17T03:52:22.907Z,60.20
2017-06-17T03:54:50.376Z,60.20
2017-06-17T03:57:17.859Z,60.20
2017-06-17T03:59:46.086Z,60.30
2017-06-17T04:02:13.560Z,60.30
2017-06-17T04:04:41.029Z,60.50
2017-06-17T04:07:09.302Z,61.60
2017-06-17T04:09:36.766Z,61.00
2017-06-17T04:12:05.012Z,61.80
2017-06-17T04:14:32.479Z,61.00
2017-06-17T04:16:59.980Z,60.90
2017-06-17T04:19:27.473Z,60.70
2017-06-17T04:21:54.937Z,60.60
2017-06-17T04:24:22.421Z,60.70
2017-06-17T04:26:49.898Z,61.00
2017-06-17T04:29:18.157Z,61.50
2017-06-17T04:31:45.629Z,61.30
2017-06-17T04:34:13.894Z,61.20
2017-06-17T04:36:41.368Z,61.20
2017-06-17T04:39:09.630Z,61.40
2017-06-17T04:41:37.107Z,61.20
2017-06-17T04:44:05.359Z,61.70
2017-06-17T04:46:32.839Z,61.60
2017-06-17T04:49:01.074Z,61.80
2017-06-17T04:51:28.546Z,61.70
2017-06-17T04:53:56.014Z,61.20
2017-06-17T04:56:24.276Z,62.10
2017-06-17T04:58:51.763Z,61.40
2017-06-17T05:01:19.268Z,61.00
2017-06-17T05:03:46.774Z,61.00
2017-06-17T05:06:14.307Z,61.50
2017-06-17T05:08:41.775Z,61.70
2017-06-17T05:11:09.260Z,61.40
2017-06-17T05:13:36.769Z,61.00
2017-06-17T05:16:04.231Z,60.50
2017-06-17T05:18:31.690Z,60.40
2017-06-17T05:20:59.187Z,60.20
2017-06-17T05:23:27.425Z,60.50
2017-06-17T05:25:54.897Z,60.30
2017-06-17T05:28:22.391Z,59.80
2017-06-17T05:30:49.860Z,59.70
2017-06-17T05:33:17.381Z,60.00
2017-06-17T05:35:45.640Z,59.00
2017-06-17T05:38:13.118Z,59.00
2017-06-17T05:40:41.349Z,58.60
2017-06-17T05:43:08.847Z,58.50
2017-06-17T05:45:37.086Z,58.20
2017-06-17T05:48:04.570Z,58.10
2017-06-17T05:50:32.064Z,57.90
2017-06-17T05:52:59.552Z,57.70
2017-06-17T05:55:27.022Z,57.40
2017-06-17T05:57:54.541Z,57.40
2017-06-17T06:00:22.017Z,57.00
2017-06-17T06:02:49.497Z,57.10
2017-06-17T06:05:17.390Z,56.50
2017-06-17T06:07:44.883Z,57.30
2017-06-17T06:10:12.357Z,57.30
2017-06-17T06:12:39.861Z,57.20
2017-06-17T06:15:07.405Z,57.20
2017-06-17T06:17:34.876Z,57.20
2017-06-17T06:20:02.388Z,57.20
2017-06-17T06:22:29.876Z,56.70
2017-06-17T06:24:57.347Z,56.30
2017-06-17T06:27:24.875Z,55.70
2017-06-17T06:29:52.346Z,56.30
2017-06-17T06:32:19.826Z,56.70
2017-06-17T06:34:47.389Z,55.80
2017-06-17T06:37:14.873Z,55.20
2017-06-17T06:39:42.348Z,55.10
2017-06-17T06:42:09.860Z,55.30
2017-06-17T06:44:37.335Z,54.20
2017-06-17T06:47:05.567Z,53.80
2017-06-17T06:49:33.082Z,53.70
2017-06-17T06:52:00.553Z,53.20
2017-06-17T06:54:28.015Z,53.40
2017-06-17T06:56:55.513Z,53.50
2017-06-17T06:59:22.984Z,53.80
2017-06-17T07:01:50.451Z,53.90
2017-06-17T07:04:18.722Z,52.80
2017-06-17T07:06:46.955Z,52.60
2017-06-17T07:09:14.433Z,52.60
2017-06-17T07:11:41.918Z,53.00
2017-06-17T07:14:10.150Z,52.40
2017-06-17T07:16:37.636Z,52.30
2017-06-17T07:19:05.114Z,52.60
2017-06-17T07:21:33.375Z,52.10
2017-06-17T07:24:00.839Z,52.00
2017-06-17T07:26:29.079Z,52.00
2017-06-17T07:28:56.556Z,51.90
2017-06-17T07:31:24.039Z,52.00
2017-06-17T07:33:52.287Z,51.60
2017-06-17T07:36:19.777Z,51.50
2017-06-17T07:38:47.275Z,51.20
2017-06-17T07:41:14.753Z,51.30
2017-06-17T07:43:42.241Z,50.90
2017-06-17T07:46:10.486Z,50.90
2017-06-17T07:48:37.962Z,50.90
2017-06-17T07:51:05.435Z,51.10
2017-06-17T07:53:33.683Z,51.50
2017-06-17T07:56:01.157Z,51.40
2017-06-17T07:58:29.407Z,50.30
2017-06-17T08:00:56.882Z,50.20
2017-06-17T08:03:24.355Z,51.10
2017-06-17T08:05:52.605Z,50.60
2017-06-17T08:08:20.084Z,50.60
2017-06-17T08:10:48.354Z,49.40
2017-06-17T08:13:15.834Z,49.50
2017-06-17T08:15:43.329Z,49.90
2017-06-17T08:18:10.809Z,50.10
2017-06-17T08:20:38.311Z,49.80
2017-06-17T08:23:05.786Z,49.40
2017-06-17T08:25:33.247Z,50.50
2017-06-17T08:28:00.748Z,50.10
2017-06-17T08:30:28.204Z,50.00
2017-06-17T08:32:55.683Z,49.20
2017-06-17T08:35:24.094Z,49.40
2017-06-17T08:37:51.574Z,49.30
2017-06-17T08:40:19.031Z,49.60
2017-06-17T08:42:46.537Z,48.30
2017-06-17T08:45:14.068Z,49.20
2017-06-17T08:47:41.573Z,48.60
2017-06-17T08:50:09.045Z,47.70
2017-06-17T08:52:36.519Z,47.40
2017-06-17T08:55:04.015Z,48.20
2017-06-17T08:57:31.469Z,48.50
2017-06-17T08:59:58.951Z,47.70
2017-06-17T09:02:26.425Z,47.20
2017-06-17T09:04:53.900Z,46.50
2017-06-17T09:07:21.372Z,47.00
2017-06-17T09:09:48.846Z,47.30
2017-06-17T09:12:16.321Z,47.50
2017-06-17T09:14:44.571Z,47.30
2017-06-17T09:17:12.046Z,47.20
2017-06-17T09:19:39.545Z,46.90
2017-06-17T09:22:07.008Z,46.60
2017-06-17T09:24:34.471Z,45.90
2017-06-17T09:27:01.945Z,46.50
2017-06-17T09:29:29.418Z,46.80
2017-06-17T09:31:56.901Z,46.80
2017-06-17T09:34:25.139Z,46.00
2017-06-17T09:36:52.640Z,46.30
2017-06-17T09:39:20.883Z,46.30
2017-06-17T09:41:48.355Z,46.30
2017-06-17T09:44:15.842Z,46.20
2017-06-17T09:46:44.096Z,46.50
2017-06-17T09:49:11.571Z,46.60
2017-06-17T09:51:40.085Z,46.90
2017-06-17T09:54:07.575Z,46.90
2017-06-17T09:56:35.058Z,46.40
2017-06-17T09:59:03.305Z,47.50
2017-06-17T10:01:30.769Z,47.40
2017-06-17T10:03:58.254Z,46.50
2017-06-17T10:06:26.489Z,45.90
2017-06-17T10:08:53.983Z,45.80
2017-06-17T10:11:22.225Z,46.60
2017-06-17T10:13:49.709Z,46.60
2017-06-17T10:16:17.186Z,45.90
2017-06-17T10:18:45.435Z,47.70
2017-06-17T10:21:12.917Z,47.60
2017-06-17T10:23:41.156Z,47.00
2017-06-17T10:26:08.636Z,47.00
2017-06-17T10:28:36.109Z,47.30
2017-06-17T10:31:04.360Z,47.90
2017-06-17T10:33:31.824Z,47.80
2017-06-17T10:35:59.300Z,48.50
2017-06-17T10:38:27.540Z,48.00
2017-06-17T10:40:55.017Z,48.00
2017-06-17T10:43:23.251Z,47.70
2017-06-17T10:45:50.761Z,48.00
2017-06-17T10:48:19.012Z,46.90
2017-06-17T10:50:46.481Z,46.80
2017-06-17T10:53:13.971Z,46.50
2017-06-17T10:55:41.432Z,46.00
2017-06-17T10:58:08.911Z,46.90
2017-06-17T11:00:36.396Z,46.20
2017-06-17T11:03:03.884Z,45.70
2017-06-17T11:05:32.107Z,46.90
2017-06-17T11:07:59.592Z,46.80
2017-06-17T11:10:27.997Z,46.30
2017-06-17T11:12:56.380Z,46.60
2017-06-17T11:15:24.634Z,45.00
2017-06-17T11:17:52.104Z,45.00
2017-06-17T11:20:20.357Z,44.50
2017-06-17T11:22:47.813Z,44.60
2017-06-17T11:25:15.303Z,45.70
2017-06-17T11:27:43.539Z,45.20
2017-06-17T11:30:11.024Z,45.10
2017-06-17T11:32:39.256Z,45.00
2017-06-17T11:35:07.295Z,45.50
2017-06-17T11:37:34.780Z,45.20
2017-06-17T11:40:02.271Z,45.30
2017-06-17T11:42:29.731Z,45.50
2017-06-17T11:44:57.221Z,46.00
2017-06-17T11:47:24.721Z,46.60
2017-06-17T11:49:52.185Z,45.10
2017-06-17T11:52:19.677Z,44.90
2017-06-17T11:54:47.139Z,44.70
2017-06-17T11:57:15.395Z,45.00
2017-06-17T11:59:42.882Z,45.00
2017-06-17T12:02:10.364Z,45.60
2017-06-17T12:04:37.844Z,46.80
2017-06-17T12:07:05.325Z,46.20
2017-06-17T12:09:32.796Z,45.00
2017-06-17T12:12:01.079Z,44.90
2017-06-17T12:14:29.304Z,44.90
2017-06-17T12:16:56.782Z,44.80
2017-06-17T12:19:24.259Z,45.10
2017-06-17T12:21:51.731Z,44.60
2017-06-17T12:24:19.986Z,45.00
2017-06-17T12:26:47.452Z,45.00
2017-06-17T12:29:16.507Z,45.30
2017-06-17T12:31:43.987Z,45.30
2017-06-17T12:34:11.460Z,46.40
2017-06-17T12:36:39.572Z,45.70
2017-06-17T12:39:07.058Z,45.30
2017-06-17T12:41:34.540Z,44.90
2017-06-17T12:44:02.022Z,45.00
2017-06-17T12:46:30.256Z,44.80
2017-06-17T12:48:58.089Z,44.70
2017-06-17T12:51:25.564Z,44.70
2017-06-17T12:53:53.033Z,45.20
2017-06-17T12:56:20.523Z,44.40
2017-06-17T12:58:54.338Z,44.70
2017-06-17T13:01:22.587Z,45.50
2017-06-17T13:03:50.073Z,45.50
2017-06-17T13:06:18.335Z,47.20
2017-06-17T13:08:45.794Z,47.00
2017-06-17T13:11:14.047Z,46.80
2017-06-17T13:13:41.528Z,46.70
2017-06-17T13:16:09.787Z,46.40
2017-06-17T13:18:37.252Z,46.30
2017-06-17T13:21:04.728Z,45.60
2017-06-17T13:23:33.035Z,45.90
2017-06-17T13:26:00.508Z,45.80
2017-06-17T13:28:27.988Z,45.80
2017-06-17T13:30:55.448Z,46.90
2017-06-17T13:33:22.929Z,46.20
2017-06-17T13:35:51.178Z,46.40
2017-06-17T13:38:18.661Z,46.20
2017-06-17T13:40:46.927Z,47.00
2017-06-17T13:43:14.420Z,46.90
2017-06-17T13:45:41.889Z,47.50
2017-06-17T13:48:09.385Z,47.30
2017-06-17T13:50:36.852Z,47.50
2017-06-17T13:53:04.336Z,47.00
2017-06-17T13:55:31.835Z,47.20
2017-06-17T13:57:59.301Z,47.50
2017-06-17T14:00:26.795Z,47.00
2017-06-17T14:02:55.051Z,48.50
2017-06-17T14:05:22.652Z,48.00
2017-06-17T14:07:50.123Z,47.80
2017-06-17T14:10:17.588Z,47.80
2017-06-17T14:12:45.060Z,48.20
2017-06-17T14:15:12.535Z,46.70
2017-06-17T14:17:40.007Z,46.80
2017-06-17T14:20:07.506Z,47.80
2017-06-17T14:22:34.987Z,47.30
2017-06-17T14:25:02.499Z,47.50
2017-06-17T14:27:30.734Z,47.30
2017-06-17T14:29:58.228Z,47.30
2017-06-17T14:32:26.477Z,46.30
2017-06-17T14:34:53.944Z,46.30
2017-06-17T14:37:21.425Z,46.10
2017-06-17T14:39:49.646Z,46.50
2017-06-17T14:42:17.128Z,46.50
2017-06-17T14:44:44.605Z,46.00
2017-06-17T14:47:12.087Z,46.50
2017-06-17T14:49:47.666Z,46.70
2017-06-17T14:52:15.163Z,46.00
2017-06-17T14:54:42.623Z,46.20
2017-06-17T14:57:10.094Z,46.40
2017-06-17T14:59:38.370Z,47.00
2017-06-17T15:02:06.591Z,47.10
2017-06-17T15:04:34.068Z,47.00
2017-06-17T15:07:01.550Z,47.20
2017-06-17T15:09:29.025Z,46.80
2017-06-17T15:11:57.256Z,47.80
2017-06-17T15:14:24.743Z,47.70
2017-06-17T15:16:52.217Z,49.10
2017-06-17T15:19:20.474Z,49.20
2017-06-17T15:21:47.941Z,49.10
2017-06-17T15:24:15.421Z,48.60
2017-06-17T15:26:42.902Z,49.60
2017-06-17T15:29:10.373Z,49.70
2017-06-17T15:31:37.872Z,50.40
2017-06-17T15:34:06.095Z,49.70
2017-06-17T15:36:33.580Z,50.20
2017-06-17T15:39:01.044Z,51.30
2017-06-17T15:41:28.523Z,51.20
2017-06-17T15:43:56.756Z,51.40
2017-06-17T15:46:24.247Z,51.40
2017-06-17T15:48:52.495Z,51.90
2017-06-17T15:51:19.961Z,51.40
2017-06-17T15:53:47.438Z,51.10
2017-06-17T15:56:14.924Z,51.50
2017-06-17T15:58:42.404Z,51.50
2017-06-17T16:01:09.883Z,51.90
2017-06-17T16:03:37.364Z,51.90
2017-06-17T16:06:04.841Z,51.70
2017-06-17T16:08:33.101Z,53.00
2017-06-17T16:11:00.572Z,52.90
2017-06-17T16:13:28.844Z,52.90
2017-06-17T16:15:57.076Z,52.50
2017-06-17T16:18:24.537Z,52.60
2017-06-17T16:20:52.016Z,52.20
2017-06-17T16:23:19.495Z,52.70
2017-06-17T16:25:47.749Z,52.70
2017-06-17T16:28:15.212Z,52.50
2017-06-17T16:30:43.733Z,52.80
2017-06-17T16:33:11.222Z,53.00
2017-06-17T16:35:38.716Z,53.00
2017-06-17T16:38:06.184Z,53.30
2017-06-17T16:40:34.415Z,53.60
2017-06-17T16:43:01.901Z,53.60
2017-06-17T16:45:29.480Z,53.50
2017-06-17T16:47:57.728Z,53.90
2017-06-17T16:50:25.210Z,53.70
2017-06-17T16:52:53.465Z,53.80
2017-06-17T16:55:20.915Z,53.70
2017-06-17T16:57:48.400Z,53.90
2017-06-17T17:00:15.861Z,53.80
2017-06-17T17:02:44.092Z,54.20
2017-06-17T17:05:11.569Z,54.20
2017-06-17T17:07:39.057Z,54.70
2017-06-17T17:10:06.534Z,54.80
2017-06-17T17:12:34.005Z,55.00
2017-06-17T17:15:01.493Z,55.00
2017-06-17T17:17:28.972Z,55.10
2017-06-17T17:19:57.206Z,55.40
2017-06-17T17:22:24.671Z,55.40
2017-06-17T17:24:52.165Z,55.60
2017-06-17T17:27:20.405Z,55.40
2017-06-17T17:29:47.872Z,55.40
2017-06-17T17:32:15.341Z,55.60
2017-06-17T17:34:42.844Z,55.70
2017-06-17T17:37:10.328Z,56.00
2017-06-17T17:39:37.825Z,55.80
2017-06-17T17:42:05.299Z,56.10
2017-06-17T17:44:32.779Z,56.40
2017-06-17T17:47:00.250Z,57.00
2017-06-17T17:49:27.758Z,56.50
2017-06-17T17:51:55.983Z,56.80
2017-06-17T17:54:23.456Z,56.70
2017-06-17T17:56:50.942Z,56.90
2017-06-17T17:59:18.408Z,56.60
2017-06-17T18:01:45.896Z,57.10
2017-06-17T18:04:13.388Z,57.10
2017-06-17T18:06:40.898Z,57.30
2017-06-17T18:09:08.362Z,57.50
2017-06-17T18:11:35.847Z,57.60
2017-06-17T18:14:03.308Z,57.50
2017-06-17T18:16:30.799Z,57.70
2017-06-17T18:18:58.278Z,57.40
2017-06-17T18:21:26.569Z,57.90
2017-06-17T18:23:54.029Z,57.80
2017-06-17T18:26:21.492Z,58.00
2017-06-17T18:28:48.985Z,58.40
2017-06-17T18:31:16.466Z,58.30
2017-06-17T18:33:43.966Z,58.40
2017-06-17T18:36:11.447Z,58.50
2017-06-17T18:38:38.940Z,58.40
2017-06-17T18:41:06.417Z,58.40
2017-06-17T18:43:34.666Z,58.60
2017-06-17T18:46:02.124Z,58.50
2017-06-17T18:48:29.634Z,58.90
2017-06-17T18:50:57.112Z,58.90
2017-06-17T18:53:24.596Z,59.10
2017-06-17T18:55:52.077Z,59.30
2017-06-17T18:58:20.329Z,59.50
2017-06-17T19:00:47.819Z,59.50
2017-06-17T19:03:16.063Z,59.60
2017-06-17T19:05:43.548Z,59.60
2017-06-17T19:08:11.783Z,59.80
2017-06-17T19:10:39.255Z,59.70
2017-06-17T19:13:06.751Z,60.00
2017-06-17T19:15:34.243Z,60.40
2017-06-17T19:18:01.714Z,60.10
2017-06-17T19:20:29.802Z,60.30
2017-06-17T19:22:57.292Z,60.20
2017-06-17T19:25:24.763Z,60.40
2017-06-17T19:27:52.253Z,60.30
2017-06-17T19:30:19.717Z,60.80
2017-06-17T19:32:47.220Z,60.60
2017-06-17T19:35:15.492Z,60.60
2017-06-17T19:37:43.741Z,61.10
2017-06-17T19:40:11.202Z,61.60
2017-06-17T19:42:38.683Z,61.30
2017-06-17T19:45:06.920Z,61.60
2017-06-17T19:47:34.433Z,61.50
2017-06-17T19:50:01.916Z,61.70
2017-06-17T19:55:23.279Z,62.00
2017-06-17T19:57:50.767Z,61.80
2017-06-17T20:00:19.008Z,62.10
2017-06-17T20:02:46.516Z,62.00
2017-06-17T20:05:14.035Z,62.20
2017-06-17T20:07:41.515Z,62.20
2017-06-17T20:10:09.756Z,62.10
2017-06-17T20:12:37.225Z,62.10
2017-06-17T20:15:04.685Z,62.20
2017-06-17T20:17:32.161Z,62.30
2017-06-17T20:20:00.413Z,63.00
2017-06-17T20:22:33.568Z,62.80
2017-06-17T20:25:01.067Z,62.90
2017-06-17T20:27:28.547Z,62.80
2017-06-17T20:29:56.804Z,63.10
2017-06-17T20:32:25.055Z,62.70
2017-06-17T20:34:52.559Z,63.40
2017-06-17T20:37:20.042Z,62.90
2017-06-17T20:39:47.510Z,62.80
2017-06-17T20:42:14.987Z,62.80
2017-06-17T20:44:42.469Z,63.20
2017-06-17T20:47:10.719Z,63.50
2017-06-17T20:49:38.186Z,63.30
2017-06-17T20:52:05.663Z,63.70
2017-06-17T20:54:33.896Z,64.40
2017-06-17T20:57:01.499Z,64.10
2017-06-17T20:59:29.732Z,65.20
2017-06-17T21:01:57.212Z,65.00
2017-06-17T21:04:24.715Z,65.40
2017-06-17T21:06:52.958Z,63.90
2017-06-17T21:09:20.426Z,63.90
2017-06-17T21:11:48.675Z,64.10
2017-06-17T21:14:16.220Z,64.10
2017-06-17T21:16:43.689Z,63.80
2017-06-17T21:19:11.160Z,63.70
2017-06-17T21:21:38.648Z,63.80
2017-06-17T21:24:07.085Z,63.60
2017-06-17T21:26:34.552Z,63.60
2017-06-17T21:29:02.048Z,63.60
2017-06-17T21:31:29.520Z,63.80
2017-06-17T21:33:57.016Z,63.90
2017-06-17T21:36:24.487Z,64.20
2017-06-17T21:38:51.985Z,64.30
2017-06-17T21:41:19.466Z,64.30
2017-06-17T21:43:46.976Z,64.50
2017-06-17T21:46:15.224Z,65.00
2017-06-17T21:48:42.692Z,64.90
2017-06-17T21:51:10.174Z,65.30
2017-06-17T21:53:38.399Z,65.60
2017-06-17T21:56:05.871Z,65.50
2017-06-17T21:58:33.349Z,65.80
2017-06-17T22:01:01.612Z,66.00
2017-06-17T22:03:29.065Z,66.20
2017-06-17T22:05:56.546Z,66.30
2017-06-17T22:08:24.777Z,66.10
2017-06-17T22:10:52.252Z,66.60
2017-06-17T22:13:19.710Z,66.80
2017-06-17T22:15:47.193Z,67.00
2017-06-17T22:18:15.430Z,67.50
2017-06-17T22:20:42.903Z,67.40
2017-06-17T22:23:10.385Z,67.60
2017-06-17T22:25:38.617Z,67.90
2017-06-17T22:28:06.110Z,67.90
2017-06-17T22:30:33.589Z,68.10
2017-06-17T22:33:01.837Z,68.50
2017-06-17T22:35:29.304Z,68.40
2017-06-17T22:37:56.795Z,68.60
2017-06-17T22:40:24.259Z,68.90
2017-06-17T22:42:51.744Z,68.80
2017-06-17T22:45:19.205Z,69.50
2017-06-17T22:47:46.683Z,70.00
2017-06-17T22:50:14.205Z,70.40
2017-06-17T22:52:41.679Z,70.40
2017-06-17T22:55:09.152Z,70.40
2017-06-17T22:57:36.625Z,70.40
2017-06-17T23:00:04.892Z,70.20
2017-06-17T23:02:32.358Z,70.10
2017-06-17T23:04:59.846Z,69.80
2017-06-17T23:07:27.323Z,69.90
2017-06-17T23:09:54.801Z,70.10
2017-06-17T23:12:22.271Z,69.80
2017-06-17T23:14:49.750Z,69.90
2017-06-17T23:17:17.983Z,69.70
2017-06-17T23:19:45.475Z,69.50
2017-06-17T23:22:12.948Z,69.40
2017-06-17T23:24:40.404Z,70.10
2017-06-17T23:27:08.661Z,70.00
2017-06-17T23:29:36.126Z,70.00
2017-06-17T23:32:03.600Z,70.00
2017-06-17T23:34:31.846Z,70.30
2017-06-17T23:36:59.328Z,70.30
2017-06-17T23:39:27.559Z,70.60
2017-06-17T23:41:55.067Z,70.60
2017-06-17T23:44:23.303Z,70.50
2017-06-17T23:46:50.788Z,70.40
2017-06-17T23:49:19.012Z,71.20
2017-06-17T23:51:46.484Z,70.40
2017-06-17T23:54:13.973Z,70.20
2017-06-17T23:56:41.436Z,70.20
2017-06-17T23:59:09.681Z,70.50
